sensor_id;sensor_type;location;lat;lon;timestamp;P1;durP1;ratioP1;P2;durP2;ratioP2
55346;SDS011;41218;55.700;38.270;2022-07-05T00:07:09;12.27;;;8.00;;
55346;SDS011;41218;55.700;38.270;2022-07-05T00:12:20;11.63;;;8.45;;
55346;SDS011;41218;55.700;38.270;2022-07-05T00:17:22;10.55;;;7.78;;
55346;SDS011;41218;55.700;38.270;2022-07-05T00:22:23;11.13;;;8.23;;
55346;SDS011;41218;55.700;38.270;2022-07-05T00:32:24;10.30;;;7.37;;
55346;SDS011;41218;55.700;38.270;2022-07-05T00:42:25;10.83;;;7.37;;
55346;SDS011;41218;55.700;38.270;2022-07-05T00:52:26;9.60;;;7.27;;
55346;SDS011;41218;55.700;38.270;2022-07-05T01:02:28;10.83;;;7.23;;
55346;SDS011;41218;55.700;38.270;2022-07-05T01:12:29;9.40;;;7.07;;
55346;SDS011;41218;55.700;38.270;2022-07-05T01:28:02;10.30;;;7.28;;
55346;SDS011;41218;55.700;38.270;2022-07-05T01:33:04;9.80;;;7.60;;
55346;SDS011;41218;55.700;38.270;2022-07-05T01:38:05;11.95;;;7.75;;
55346;SDS011;41218;55.700;38.270;2022-07-05T01:48:10;11.57;;;7.60;;
55346;SDS011;41218;55.700;38.270;2022-07-05T01:53:23;9.80;;;7.30;;
55346;SDS011;41218;55.700;38.270;2022-07-05T01:58:27;12.18;;;8.07;;
55346;SDS011;41218;55.700;38.270;2022-07-05T02:03:28;11.07;;;7.47;;
55346;SDS011;41218;55.700;38.270;2022-07-05T02:08:30;10.82;;;7.57;;
55346;SDS011;41218;55.700;38.270;2022-07-05T02:18:31;9.87;;;7.60;;
55346;SDS011;41218;55.700;38.270;2022-07-05T02:28:32;10.00;;;7.00;;
55346;SDS011;41218;55.700;38.270;2022-07-05T02:38:33;11.97;;;7.53;;
55346;SDS011;41218;55.700;38.270;2022-07-05T02:48:34;11.80;;;7.70;;
55346;SDS011;41218;55.700;38.270;2022-07-05T02:53:36;11.25;;;7.38;;
55346;SDS011;41218;55.700;38.270;2022-07-05T03:03:37;9.70;;;6.97;;
55346;SDS011;41218;55.700;38.270;2022-07-05T03:13:38;12.50;;;7.87;;
55346;SDS011;41218;55.700;38.270;2022-07-05T03:23:39;14.10;;;8.23;;
55346;SDS011;41218;55.700;38.270;2022-07-05T03:28:39;16.65;;;8.10;;
55346;SDS011;41218;55.700;38.270;2022-07-05T03:38:40;11.67;;;8.00;;
55346;SDS011;41218;55.700;38.270;2022-07-05T03:48:41;10.90;;;7.83;;
55346;SDS011;41218;55.700;38.270;2022-07-05T03:58:42;11.73;;;7.50;;
55346;SDS011;41218;55.700;38.270;2022-07-05T04:08:43;11.73;;;8.30;;
55346;SDS011;41218;55.700;38.270;2022-07-05T04:13:43;12.68;;;8.40;;
55346;SDS011;41218;55.700;38.270;2022-07-05T04:23:44;10.07;;;8.07;;
55346;SDS011;41218;55.700;38.270;2022-07-05T04:33:45;11.63;;;8.73;;
55346;SDS011;41218;55.700;38.270;2022-07-05T04:38:46;11.88;;;8.90;;
55346;SDS011;41218;55.700;38.270;2022-07-05T04:43:46;13.75;;;9.55;;
55346;SDS011;41218;55.700;38.270;2022-07-05T04:48:47;12.20;;;9.68;;
55346;SDS011;41218;55.700;38.270;2022-07-05T04:53:48;16.10;;;9.90;;
55346;SDS011;41218;55.700;38.270;2022-07-05T04:58:48;14.10;;;9.20;;
55346;SDS011;41218;55.700;38.270;2022-07-05T05:03:49;15.25;;;9.85;;
55346;SDS011;41218;55.700;38.270;2022-07-05T05:08:49;12.07;;;9.65;;
55346;SDS011;41218;55.700;38.270;2022-07-05T05:13:50;12.30;;;9.30;;
55346;SDS011;41218;55.700;38.270;2022-07-05T05:18:50;13.38;;;9.63;;
55346;SDS011;41218;55.700;38.270;2022-07-05T05:23:51;13.05;;;9.45;;
55346;SDS011;41218;55.700;38.270;2022-07-05T05:28:52;13.13;;;9.50;;
55346;SDS011;41218;55.700;38.270;2022-07-05T05:33:52;12.18;;;9.05;;
55346;SDS011;41218;55.700;38.270;2022-07-05T05:38:53;13.30;;;9.30;;
55346;SDS011;41218;55.700;38.270;2022-07-05T05:43:53;13.65;;;9.25;;
55346;SDS011;41218;55.700;38.270;2022-07-05T05:48:54;13.63;;;9.55;;
55346;SDS011;41218;55.700;38.270;2022-07-05T05:53:55;11.18;;;8.98;;
55346;SDS011;41218;55.700;38.270;2022-07-05T05:58:55;13.82;;;9.32;;
55346;SDS011;41218;55.700;38.270;2022-07-05T06:03:56;11.80;;;8.73;;
55346;SDS011;41218;55.700;38.270;2022-07-05T06:08:56;12.90;;;8.13;;
55346;SDS011;41218;55.700;38.270;2022-07-05T06:13:57;9.52;;;8.15;;
55346;SDS011;41218;55.700;38.270;2022-07-05T06:18:57;9.32;;;8.00;;
55346;SDS011;41218;55.700;38.270;2022-07-05T06:23:58;9.13;;;7.32;;
55346;SDS011;41218;55.700;38.270;2022-07-05T06:28:58;10.93;;;7.78;;
55346;SDS011;41218;55.700;38.270;2022-07-05T06:33:59;10.60;;;7.90;;
55346;SDS011;41218;55.700;38.270;2022-07-05T06:38:59;9.05;;;7.45;;
55346;SDS011;41218;55.700;38.270;2022-07-05T06:44:00;8.55;;;6.93;;
55346;SDS011;41218;55.700;38.270;2022-07-05T06:49:01;7.13;;;6.05;;
55346;SDS011;41218;55.700;38.270;2022-07-05T06:54:01;10.05;;;6.95;;
55346;SDS011;41218;55.700;38.270;2022-07-05T06:59:02;7.90;;;7.00;;
55346;SDS011;41218;55.700;38.270;2022-07-05T07:04:03;8.88;;;7.10;;
55346;SDS011;41218;55.700;38.270;2022-07-05T07:09:03;8.13;;;6.50;;
55346;SDS011;41218;55.700;38.270;2022-07-05T07:14:20;9.80;;;6.72;;
55346;SDS011;41218;55.700;38.270;2022-07-05T07:19:21;9.52;;;7.07;;
55346;SDS011;41218;55.700;38.270;2022-07-05T07:24:22;11.40;;;6.93;;
55346;SDS011;41218;55.700;38.270;2022-07-05T07:29:23;10.98;;;7.22;;
55346;SDS011;41218;55.700;38.270;2022-07-05T07:34:23;9.95;;;7.30;;
55346;SDS011;41218;55.700;38.270;2022-07-05T07:39:25;8.40;;;7.50;;
55346;SDS011;41218;55.700;38.270;2022-07-05T07:44:26;8.50;;;7.47;;
55346;SDS011;41218;55.700;38.270;2022-07-05T07:49:27;8.75;;;7.78;;
55346;SDS011;41218;55.700;38.270;2022-07-05T07:54:27;8.30;;;7.50;;
55346;SDS011;41218;55.700;38.270;2022-07-05T07:59:28;9.82;;;8.80;;
55346;SDS011;41218;55.700;38.270;2022-07-05T08:04:28;10.95;;;8.77;;
55346;SDS011;41218;55.700;38.270;2022-07-05T08:09:29;11.75;;;8.90;;
55346;SDS011;41218;55.700;38.270;2022-07-05T08:14:31;9.85;;;8.85;;
55346;SDS011;41218;55.700;38.270;2022-07-05T08:19:31;14.48;;;9.30;;
55346;SDS011;41218;55.700;38.270;2022-07-05T08:24:50;10.07;;;8.95;;
55346;SDS011;41218;55.700;38.270;2022-07-05T08:29:51;11.65;;;9.32;;
55346;SDS011;41218;55.700;38.270;2022-07-05T08:34:52;10.82;;;9.43;;
55346;SDS011;41218;55.700;38.270;2022-07-05T08:39:52;9.77;;;8.70;;
55346;SDS011;41218;55.700;38.270;2022-07-05T08:44:53;11.38;;;9.38;;
55346;SDS011;41218;55.700;38.270;2022-07-05T08:49:55;13.02;;;9.05;;
55346;SDS011;41218;55.700;38.270;2022-07-05T08:54:58;11.07;;;8.85;;
55346;SDS011;41218;55.700;38.270;2022-07-05T08:59:58;10.38;;;8.95;;
55346;SDS011;41218;55.700;38.270;2022-07-05T09:04:59;9.82;;;8.82;;
55346;SDS011;41218;55.700;38.270;2022-07-05T09:10:02;11.20;;;9.25;;
55346;SDS011;41218;55.700;38.270;2022-07-05T09:15:07;10.52;;;9.15;;
55346;SDS011;41218;55.700;38.270;2022-07-05T09:25:17;9.52;;;8.55;;
55346;SDS011;41218;55.700;38.270;2022-07-05T09:30:32;11.35;;;9.27;;
55346;SDS011;41218;55.700;38.270;2022-07-05T09:35:42;10.50;;;9.40;;
55346;SDS011;41218;55.700;38.270;2022-07-05T09:40:51;10.57;;;9.27;;
55346;SDS011;41218;55.700;38.270;2022-07-05T09:45:58;9.43;;;8.52;;
55346;SDS011;41218;55.700;38.270;2022-07-05T09:51:12;10.48;;;9.38;;
55346;SDS011;41218;55.700;38.270;2022-07-05T09:56:14;9.75;;;8.82;;
55346;SDS011;41218;55.700;38.270;2022-07-05T10:01:25;11.27;;;8.85;;
55346;SDS011;41218;55.700;38.270;2022-07-05T10:06:27;10.18;;;9.10;;
55346;SDS011;41218;55.700;38.270;2022-07-05T10:11:31;10.45;;;9.35;;
55346;SDS011;41218;55.700;38.270;2022-07-05T10:16:31;10.63;;;9.63;;
55346;SDS011;41218;55.700;38.270;2022-07-05T10:21:32;11.25;;;9.48;;
55346;SDS011;41218;55.700;38.270;2022-07-05T10:26:35;10.20;;;9.20;;
55346;SDS011;41218;55.700;38.270;2022-07-05T10:31:37;10.10;;;9.10;;
55346;SDS011;41218;55.700;38.270;2022-07-05T10:36:38;11.35;;;9.32;;
55346;SDS011;41218;55.700;38.270;2022-07-05T10:41:39;10.75;;;9.68;;
55346;SDS011;41218;55.700;38.270;2022-07-05T10:46:41;13.60;;;8.75;;
55346;SDS011;41218;55.700;38.270;2022-07-05T10:51:43;10.85;;;9.30;;
55346;SDS011;41218;55.700;38.270;2022-07-05T10:57:19;11.75;;;9.88;;
55346;SDS011;41218;55.700;38.270;2022-07-05T11:02:40;9.75;;;8.68;;
55346;SDS011;41218;55.700;38.270;2022-07-05T11:13:03;10.13;;;9.02;;
55346;SDS011;41218;55.700;38.270;2022-07-05T11:18:36;11.68;;;9.68;;
55346;SDS011;41218;55.700;38.270;2022-07-05T11:23:36;11.23;;;9.35;;
55346;SDS011;41218;55.700;38.270;2022-07-05T11:28:43;11.23;;;9.48;;
55346;SDS011;41218;55.700;38.270;2022-07-05T11:33:45;10.15;;;9.15;;
55346;SDS011;41218;55.700;38.270;2022-07-05T11:44:20;17.42;;;10.85;;
55346;SDS011;41218;55.700;38.270;2022-07-05T11:49:22;15.77;;;10.82;;
55346;SDS011;41218;55.700;38.270;2022-07-05T11:54:24;13.07;;;11.18;;
55346;SDS011;41218;55.700;38.270;2022-07-05T11:59:26;13.20;;;11.07;;
55346;SDS011;41218;55.700;38.270;2022-07-05T12:04:28;12.57;;;11.25;;
55346;SDS011;41218;55.700;38.270;2022-07-05T12:09:31;12.18;;;10.75;;
55346;SDS011;41218;55.700;38.270;2022-07-05T12:14:51;13.25;;;10.32;;
55346;SDS011;41218;55.700;38.270;2022-07-05T12:19:52;14.55;;;10.32;;
55346;SDS011;41218;55.700;38.270;2022-07-05T12:24:54;13.43;;;10.93;;
55346;SDS011;41218;55.700;38.270;2022-07-05T12:29:55;12.02;;;10.75;;
55346;SDS011;41218;55.700;38.270;2022-07-05T12:34:56;14.55;;;10.38;;
55346;SDS011;41218;55.700;38.270;2022-07-05T12:40:16;13.75;;;10.45;;
55346;SDS011;41218;55.700;38.270;2022-07-05T12:45:22;14.13;;;10.32;;
55346;SDS011;41218;55.700;38.270;2022-07-05T12:50:27;12.43;;;10.18;;
55346;SDS011;41218;55.700;38.270;2022-07-05T12:55:35;15.43;;;10.38;;
55346;SDS011;41218;55.700;38.270;2022-07-05T13:00:55;11.25;;;9.27;;
55346;SDS011;41218;55.700;38.270;2022-07-05T13:06:02;14.32;;;9.15;;
55346;SDS011;41218;55.700;38.270;2022-07-05T13:11:02;13.07;;;9.95;;
55346;SDS011;41218;55.700;38.270;2022-07-05T13:16:03;15.80;;;9.93;;
55346;SDS011;41218;55.700;38.270;2022-07-05T13:21:05;12.90;;;9.98;;
55346;SDS011;41218;55.700;38.270;2022-07-05T13:26:05;12.35;;;9.88;;
55346;SDS011;41218;55.700;38.270;2022-07-05T13:31:06;14.48;;;10.35;;
55346;SDS011;41218;55.700;38.270;2022-07-05T13:36:07;17.52;;;10.65;;
55346;SDS011;41218;55.700;38.270;2022-07-05T13:41:07;14.88;;;11.10;;
55346;SDS011;41218;55.700;38.270;2022-07-05T13:46:08;16.15;;;11.10;;
55346;SDS011;41218;55.700;38.270;2022-07-05T13:51:09;14.25;;;11.10;;
55346;SDS011;41218;55.700;38.270;2022-07-05T13:56:09;14.50;;;10.43;;
55346;SDS011;41218;55.700;38.270;2022-07-05T14:01:10;14.48;;;11.10;;
55346;SDS011;41218;55.700;38.270;2022-07-05T14:06:13;12.95;;;10.15;;
55346;SDS011;41218;55.700;38.270;2022-07-05T14:11:14;15.45;;;10.40;;
55346;SDS011;41218;55.700;38.270;2022-07-05T14:16:14;13.38;;;11.18;;
55346;SDS011;41218;55.700;38.270;2022-07-05T14:21:15;13.70;;;10.88;;
55346;SDS011;41218;55.700;38.270;2022-07-05T14:26:17;16.15;;;11.48;;
55346;SDS011;41218;55.700;38.270;2022-07-05T14:31:18;15.45;;;11.88;;
55346;SDS011;41218;55.700;38.270;2022-07-05T14:36:18;14.90;;;11.70;;
55346;SDS011;41218;55.700;38.270;2022-07-05T14:41:19;15.05;;;11.68;;
55346;SDS011;41218;55.700;38.270;2022-07-05T14:46:20;13.93;;;11.27;;
55346;SDS011;41218;55.700;38.270;2022-07-05T14:51:21;12.73;;;10.18;;
55346;SDS011;41218;55.700;38.270;2022-07-05T14:56:22;13.82;;;11.13;;
55346;SDS011;41218;55.700;38.270;2022-07-05T15:01:23;14.63;;;10.70;;
55346;SDS011;41218;55.700;38.270;2022-07-05T15:06:23;14.80;;;11.45;;
55346;SDS011;41218;55.700;38.270;2022-07-05T15:11:24;13.82;;;10.52;;
55346;SDS011;41218;55.700;38.270;2022-07-05T15:16:24;16.25;;;10.65;;
55346;SDS011;41218;55.700;38.270;2022-07-05T15:21:25;13.60;;;10.18;;
55346;SDS011;41218;55.700;38.270;2022-07-05T15:26:29;12.23;;;9.23;;
55346;SDS011;41218;55.700;38.270;2022-07-05T15:31:29;11.48;;;8.40;;
55346;SDS011;41218;55.700;38.270;2022-07-05T15:36:31;8.23;;;6.30;;
55346;SDS011;41218;55.700;38.270;2022-07-05T15:41:32;8.10;;;5.60;;
55346;SDS011;41218;55.700;38.270;2022-07-05T15:46:33;7.13;;;4.05;;
55346;SDS011;41218;55.700;38.270;2022-07-05T15:51:53;6.10;;;3.90;;
55346;SDS011;41218;55.700;38.270;2022-07-05T15:56:53;6.10;;;3.42;;
55346;SDS011;41218;55.700;38.270;2022-07-05T16:01:54;5.38;;;3.10;;
55346;SDS011;41218;55.700;38.270;2022-07-05T16:06:58;4.20;;;3.40;;
55346;SDS011;41218;55.700;38.270;2022-07-05T16:12:00;4.38;;;3.33;;
55346;SDS011;41218;55.700;38.270;2022-07-05T16:17:00;6.20;;;3.83;;
55346;SDS011;41218;55.700;38.270;2022-07-05T16:22:01;6.85;;;3.50;;
55346;SDS011;41218;55.700;38.270;2022-07-05T16:27:02;7.00;;;3.17;;
55346;SDS011;41218;55.700;38.270;2022-07-05T16:32:03;5.30;;;2.90;;
55346;SDS011;41218;55.700;38.270;2022-07-05T16:37:04;4.38;;;2.90;;
55346;SDS011;41218;55.700;38.270;2022-07-05T16:42:11;6.43;;;3.28;;
55346;SDS011;41218;55.700;38.270;2022-07-05T16:47:15;4.15;;;3.20;;
55346;SDS011;41218;55.700;38.270;2022-07-05T16:52:15;4.28;;;3.00;;
55346;SDS011;41218;55.700;38.270;2022-07-05T16:57:18;6.63;;;3.30;;
55346;SDS011;41218;55.700;38.270;2022-07-05T17:02:18;5.07;;;3.05;;
55346;SDS011;41218;55.700;38.270;2022-07-05T17:07:19;6.60;;;3.42;;
55346;SDS011;41218;55.700;38.270;2022-07-05T17:12:20;5.40;;;3.72;;
55346;SDS011;41218;55.700;38.270;2022-07-05T17:17:20;4.97;;;3.22;;
55346;SDS011;41218;55.700;38.270;2022-07-05T17:22:23;10.60;;;3.50;;
55346;SDS011;41218;55.700;38.270;2022-07-05T17:27:24;4.80;;;3.40;;
55346;SDS011;41218;55.700;38.270;2022-07-05T17:32:25;6.25;;;3.90;;
55346;SDS011;41218;55.700;38.270;2022-07-05T17:37:25;6.25;;;3.67;;
55346;SDS011;41218;55.700;38.270;2022-07-05T17:42:29;5.80;;;3.90;;
55346;SDS011;41218;55.700;38.270;2022-07-05T17:47:30;8.32;;;4.07;;
55346;SDS011;41218;55.700;38.270;2022-07-05T17:52:35;5.90;;;3.97;;
55346;SDS011;41218;55.700;38.270;2022-07-05T17:57:35;7.57;;;4.85;;
55346;SDS011;41218;55.700;38.270;2022-07-05T18:02:36;8.65;;;5.40;;
55346;SDS011;41218;55.700;38.270;2022-07-05T18:07:37;7.55;;;5.10;;
55346;SDS011;41218;55.700;38.270;2022-07-05T18:12:37;6.03;;;4.55;;
55346;SDS011;41218;55.700;38.270;2022-07-05T18:17:38;8.35;;;5.07;;
55346;SDS011;41218;55.700;38.270;2022-07-05T18:22:39;8.05;;;5.03;;
55346;SDS011;41218;55.700;38.270;2022-07-05T18:27:40;6.57;;;4.93;;
55346;SDS011;41218;55.700;38.270;2022-07-05T18:32:40;7.53;;;4.95;;
55346;SDS011;41218;55.700;38.270;2022-07-05T18:37:41;8.68;;;5.32;;
55346;SDS011;41218;55.700;38.270;2022-07-05T18:42:42;8.65;;;5.30;;
55346;SDS011;41218;55.700;38.270;2022-07-05T18:47:43;7.05;;;5.35;;
55346;SDS011;41218;55.700;38.270;2022-07-05T18:52:43;7.40;;;5.43;;
55346;SDS011;41218;55.700;38.270;2022-07-05T18:57:44;7.28;;;5.55;;
55346;SDS011;41218;55.700;38.270;2022-07-05T19:02:45;7.38;;;5.63;;
55346;SDS011;41218;55.700;38.270;2022-07-05T19:07:45;7.30;;;5.88;;
55346;SDS011;41218;55.700;38.270;2022-07-05T19:13:05;8.35;;;5.82;;
55346;SDS011;41218;55.700;38.270;2022-07-05T19:18:24;10.30;;;6.53;;
55346;SDS011;41218;55.700;38.270;2022-07-05T19:23:25;8.38;;;6.13;;
55346;SDS011;41218;55.700;38.270;2022-07-05T19:28:25;8.10;;;6.22;;
55346;SDS011;41218;55.700;38.270;2022-07-05T19:33:26;7.57;;;5.63;;
55346;SDS011;41218;55.700;38.270;2022-07-05T19:38:27;7.05;;;5.60;;
55346;SDS011;41218;55.700;38.270;2022-07-05T19:43:28;8.07;;;5.30;;
55346;SDS011;41218;55.700;38.270;2022-07-05T19:48:30;12.60;;;5.95;;
55346;SDS011;41218;55.700;38.270;2022-07-05T19:53:31;8.20;;;5.53;;
55346;SDS011;41218;55.700;38.270;2022-07-05T19:58:31;7.68;;;5.60;;
55346;SDS011;41218;55.700;38.270;2022-07-05T20:03:32;8.88;;;6.30;;
55346;SDS011;41218;55.700;38.270;2022-07-05T20:08:33;7.40;;;5.85;;
55346;SDS011;41218;55.700;38.270;2022-07-05T20:13:34;8.35;;;6.45;;
55346;SDS011;41218;55.700;38.270;2022-07-05T20:18:34;7.57;;;5.78;;
55346;SDS011;41218;55.700;38.270;2022-07-05T20:23:35;9.30;;;5.95;;
55346;SDS011;41218;55.700;38.270;2022-07-05T20:28:36;9.30;;;6.80;;
55346;SDS011;41218;55.700;38.270;2022-07-05T20:33:37;10.43;;;6.45;;
55346;SDS011;41218;55.700;38.270;2022-07-05T20:38:37;9.43;;;6.53;;
55346;SDS011;41218;55.700;38.270;2022-07-05T20:43:38;10.90;;;6.80;;
55346;SDS011;41218;55.700;38.270;2022-07-05T20:48:39;9.15;;;5.95;;
55346;SDS011;41218;55.700;38.270;2022-07-05T20:53:39;9.10;;;6.30;;
55346;SDS011;41218;55.700;38.270;2022-07-05T20:58:40;10.20;;;6.28;;
55346;SDS011;41218;55.700;38.270;2022-07-05T21:08:41;7.37;;;5.80;;
55346;SDS011;41218;55.700;38.270;2022-07-05T21:18:41;8.97;;;5.70;;
55346;SDS011;41218;55.700;38.270;2022-07-05T21:28:42;8.47;;;6.10;;
55346;SDS011;41218;55.700;38.270;2022-07-05T21:33:45;8.95;;;6.00;;
55346;SDS011;41218;55.700;38.270;2022-07-05T21:38:46;11.93;;;6.18;;
55346;SDS011;41218;55.700;38.270;2022-07-05T21:43:46;9.50;;;6.40;;
55346;SDS011;41218;55.700;38.270;2022-07-05T21:48:47;10.65;;;6.20;;
55346;SDS011;41218;55.700;38.270;2022-07-05T21:53:48;8.55;;;6.43;;
55346;SDS011;41218;55.700;38.270;2022-07-05T21:58:49;7.68;;;5.82;;
55346;SDS011;41218;55.700;38.270;2022-07-05T22:04:08;9.25;;;6.45;;
55346;SDS011;41218;55.700;38.270;2022-07-05T22:09:30;8.43;;;6.10;;
55346;SDS011;41218;55.700;38.270;2022-07-05T22:14:32;8.15;;;5.93;;
55346;SDS011;41218;55.700;38.270;2022-07-05T22:19:33;9.05;;;6.18;;
55346;SDS011;41218;55.700;38.270;2022-07-05T22:29:34;7.97;;;6.07;;
55346;SDS011;41218;55.700;38.270;2022-07-05T22:39:35;8.17;;;5.83;;
55346;SDS011;41218;55.700;38.270;2022-07-05T22:49:36;7.23;;;5.40;;
55346;SDS011;41218;55.700;38.270;2022-07-05T22:59:36;7.47;;;5.60;;
55346;SDS011;41218;55.700;38.270;2022-07-05T23:09:37;8.77;;;5.67;;
55346;SDS011;41218;55.700;38.270;2022-07-05T23:19:39;8.90;;;6.40;;
55346;SDS011;41218;55.700;38.270;2022-07-05T23:24:39;11.55;;;6.45;;
55346;SDS011;41218;55.700;38.270;2022-07-05T23:29:58;10.80;;;6.80;;
55346;SDS011;41218;55.700;38.270;2022-07-05T23:35:00;10.30;;;6.75;;
55346;SDS011;41218;55.700;38.270;2022-07-05T23:45:01;10.13;;;6.43;;
55346;SDS011;41218;55.700;38.270;2022-07-05T23:55:06;12.20;;;6.95;;
